Weather observations for the past three days for
Muskegon, Muskegon County Airport
Metric (Imperial)
Date Time (edt) Wind (kph) Vis. (km) Weather Sky Cond. Temperature (ºC) Relative Humidity Wind Chill (°C) Heat Index (°C) Pressure Precipitation (cm)
Air Dwpt 6 hour altimeter (cm) sea level (mb) 1 hr 3 hr 6 hr
Max. Min.
10 11:55 W 15 G 28 16.09 Fair CLR 11.7 -2.2 38% 76.45 1019.5
10 10:55 W 13 16.09 Fair CLR 11.1 -2.2 40% 76.43 1019.1
10 09:55 S 13 16.09 Fair CLR 10.6 -1.7 43% 76.38 1018.7
10 08:55 SW 9 16.09 Fair CLR 9.4 0.6 55% 8 76.35 1018.3
10 07:55 Calm 16.09 Fair CLR 5.6 0 7.2 0 68% 76.3 1017.4
10 06:55 Calm 16.09 Fair CLR 0.6 -2.2 82% 76.25 1017.0
10 05:55 Calm 16.09 Fair CLR 1.1 -1.7 82% 76.17 1015.8
10 04:55 Calm 16.09 Fair CLR 2.8 -1.7 73% 76.12 1015.2
10 03:55 Calm 16.09 Fair CLR 5 -2.2 60% 76.07 1014.2
10 02:55 NE 7 16.09 Fair CLR 6.1 -1.7 58% 5 76 1013.5
10 01:55 NE 9 16.09 Fair CLR 7.2 -1.7 14.4 7.2 54% 6 75.97 1013.1
10 00:55 N 15 16.09 Fair CLR 8.3 -1.1 52% 6 75.95 1012.7
09 23:55 N 11 16.09 Fair CLR 8.3 0 56% 7 75.82 1010.9
09 22:55 N 17 16.09 Fair CLR 9.4 1.7 59% 7 75.74 1010.2
09 21:55 W 7 16.09 A Few Clouds FEW080 9.4 1.7 59% 9 75.67 1008.7
09 20:55 W 11 16.09 A Few Clouds FEW080 11.7 2.2 52% 75.57 1007.7
09 19:55 NW 11 16.09 A Few Clouds FEW080 14.4 2.2 16.7 12.2 44% 75.51 1006.9
09 18:55 NW 19 G 37 16.09 A Few Clouds FEW080 15.6 2.8 42% 75.44 1005.7
09 17:55 NW 24 16.09 Partly Cloudy SCT080 16.7 0 32% 75.39 1005.1
09 16:55 NW 17 16.09 Mostly Cloudy BKN085 15.6 0 35% 75.34 1004.3
09 15:55 NW 11 16.09 A Few Clouds FEW095 16.7 0 32% 75.29 1003.9
09 14:55 W 17 16.09 A Few Clouds FEW095 16.1 1.1 36% 75.29 1003.8
09 13:55 W 13 16.09 Mostly Cloudy BKN085 BKN100 12.2 4.4 12.2 10 59% 75.31 1004.1
09 12:55 SW 13 16.09 Overcast BKN085 OVC110 11.1 5 66% 75.29 1003.8
09 11:55 W 7 16.09 Overcast BKN070 OVC090 10 5.6 74% 9 75.29 1003.9
09 10:55 SW 24 G 48 16.09 Overcast BKN110 OVC250 10 7.2 83% 7 75.23 1003.0
09 09:55 SW 26 G 57 16.09 Overcast FEW110 OVC250 12.2 7.8 75% 75.16 1002.1
09 08:55 SW 31 G 46 16.09 Overcast SCT110 OVC250 11.7 8.3 80% 75.13 1001.9
09 07:55 SW 30 G 56 16.09 Mostly Cloudy BKN110 10.6 7.8 13.3 10.6 83% 75.13 1001.8
09 06:55 S 33 G 63 16.09 Overcast and Breezy OVC100 10.6 8.3 86% 75.11 1001.3
09 05:55 S 28 G 48 16.09 Mostly Cloudy BKN100 11.1 8.3 83% 75.13 1001.6
09 04:55 S 33 G 46 16.09 A Few Clouds and Breezy FEW110 11.1 8.3 83% 75.16 1002.1
09 03:55 S 26 G 43 16.09 Overcast OVC100 12.2 8.3 77% 75.23 1002.9
09 02:55 S 26 G 50 16.09 Fair CLR 11.7 7.8 77% 75.29 1003.7
09 01:55 S 19 G 33 16.09 Fair CLR 12.8 2.8 15 11.1 51% 75.34 1004.4
09 00:55 S 15 16.09 Fair CLR 11.7 -1.1 41% 75.36 1004.6
08 23:55 S 13 16.09 Fair CLR 11.1 -2.8 38% 75.39 1005.3
08 22:55 S 15 16.09 A Few Clouds FEW250 11.7 -6.7 27% 75.44 1005.9
08 21:55 S 13 16.09 A Few Clouds FEW250 11.7 -6.1 28% 75.46 1006.2
08 20:55 S 9 16.09 A Few Clouds FEW250 12.8 -7.8 23% 75.44 1006.0
08 19:55 S 11 16.09 Partly Cloudy SCT250 15 -7.8 15.6 14.4 20% 75.49 1006.5
08 18:55 S 17 16.09 Partly Cloudy SCT250 15.6 -6.7 21% 75.54 1007.3
08 17:55 S 22 16.09 Partly Cloudy SCT250 15.6 -6.7 21% 75.57 1007.9
08 16:55 SW 22 16.09 Partly Cloudy SCT250 15.6 -5.6 23% 75.62 1008.3
08 15:55 SW 22 16.09 Partly Cloudy SCT250 15 -3.3 28% 75.67 1009.0
08 14:55 SW 20 16.09 Mostly Cloudy BKN250 15 -1.7 32% 75.72 1009.5
08 13:55 SW 19 16.09 Mostly Cloudy FEW190 BKN230 14.4 -3.9 15.6 4.4 28% 75.74 1010.1
08 12:55 SW 24 16.09 Mostly Cloudy SCT140 BKN250 15 -4.4 26% 75.79 1010.8
08 11:55 SW 17 16.09 A Few Clouds FEW250 13.9 0 39% 75.82 1011.1
08 10:55 SW 20 16.09 A Few Clouds FEW250 12.2 5 62% 75.84 1011.4
08 09:55 S 13 16.09 A Few Clouds FEW250 11.7 2.8 55% 75.84 1011.4
08 08:55 S 11 16.09 Fair CLR 8.9 2.8 66% 7 75.87 1011.7
08 07:55 SE 6 16.09 Fair CLR 3.9 1.1 3.9 -1.1 82% 75.84 1011.6
08 06:55 Calm 16.09 Fair CLR 0 -1.7 88% 75.82 1011.4
08 05:55 Calm 16.09 Fair CLR 0 -2.2 85% 75.82 1011.4
08 04:55 Calm 16.09 Fair CLR 0.6 -1.1 89% 75.87 1011.8
08 03:55 Calm 16.09 Fair CLR 1.7 -1.1 82% 75.87 1012.0
08 02:55 Calm 16.09 Fair CLR 2.8 -0.6 79% 75.9 1012.2
08 01:55 Calm 16.09 Fair CLR 1.7 -1.1 10 0.6 82% 75.9 1012.4
08 00:55 Calm 16.09 Fair CLR 3.9 -0.6 73% 75.92 1012.7
07 23:55 Calm 16.09 A Few Clouds FEW080 6.1 -1.1 60% 75.9 1012.3
07 22:55 Calm 16.09 Partly Cloudy SCT085 6.1 -1.1 60% 75.9 1012.1
07 21:55 Calm 16.09 Partly Cloudy SCT085 6.7 -1.1 58% 75.87 1011.7
07 20:55 N 6 16.09 Partly Cloudy SCT100 8.3 -2.2 48% 75.82 1011.1
07 19:55 N 7 16.09 Partly Cloudy SCT100 10 -2.8 11.1 8.3 41% 9 75.82 1011.1
07 18:55 N 6 16.09 Partly Cloudy FEW070 SCT110 10 -3.3 39% 75.84 1011.6
07 17:55 Calm 16.09 Partly Cloudy FEW075 SCT110 10 -3.3 39% 75.87 1012.0
07 16:55 SW 15 16.09 Partly Cloudy SCT090 10.6 -3.9 36% 75.92 1012.4
07 15:55 SW 13 16.09 Partly Cloudy SCT090 9.4 -4.4 38% 8 75.97 1013.3
07 14:55 SW 20 16.09 Mostly Cloudy SCT095 BKN250 9.4 -2.8 43% 7 76.02 1013.8
07 13:55 W 19 16.09 Mostly Cloudy BKN075 BKN250 10 -3.9 10 5.6 38% 8 76.02 1013.8
07 12:55 W 19 16.09 Mostly Cloudy BKN075 8.3 -3.9 42% 6 76.07 1014.5
Date Time (edt) Wind (kph) Vis. (km) Weather Sky Cond. Air Dwpt Max. Min. Relative Humidity Wind Chill (°C) Heat Index (°C) altimeter (cm) sea level (mb) 1 hr 3 hr 6 hr
6 hour
Temperature (ºC) Pressure Precipitation (cm)